createdAt,value
2022-11-21T00:00:32.405Z,7.05
2022-11-21T00:03:17.691Z,7.04
2022-11-21T00:06:03.080Z,7.08
2022-11-21T00:08:47.834Z,7.01
2022-11-21T00:11:33.008Z,7.10
2022-11-21T00:14:17.886Z,7.08
2022-11-21T00:17:03.000Z,7.11
2022-11-21T00:19:48.159Z,7.18
2022-11-21T00:22:33.178Z,7.14
2022-11-21T00:25:18.155Z,7.16
2022-11-21T00:28:04.058Z,7.08
2022-11-21T00:30:48.901Z,7.08
2022-11-21T00:33:38.575Z,7.05
2022-11-21T00:36:23.276Z,7.06
2022-11-21T00:39:08.590Z,7.17
2022-11-21T00:41:53.623Z,7.15
2022-11-21T00:44:38.819Z,7.08
2022-11-21T00:47:24.081Z,7.11
2022-11-21T00:50:09.663Z,7.12
2022-11-21T00:52:58.215Z,7.11
2022-11-21T00:55:43.124Z,6.95
2022-11-21T00:58:28.442Z,6.89
2022-11-21T01:01:15.459Z,6.85
2022-11-21T01:04:00.522Z,6.82
2022-11-21T01:06:45.691Z,6.85
2022-11-21T01:09:30.966Z,6.81
2022-11-21T01:12:16.047Z,6.77
2022-11-21T01:15:01.410Z,6.75
2022-11-21T01:17:46.568Z,6.74
2022-11-21T01:20:31.721Z,6.77
2022-11-21T01:23:16.558Z,6.78
2022-11-21T01:26:04.073Z,6.80
2022-11-21T01:28:49.369Z,6.80
2022-11-21T01:31:34.870Z,6.79
2022-11-21T01:34:19.681Z,6.73
2022-11-21T01:37:04.931Z,6.76
2022-11-21T01:39:50.176Z,6.76
2022-11-21T01:43:11.582Z,6.74
2022-11-21T01:45:59.341Z,6.75
2022-11-21T01:49:09.615Z,6.72
2022-11-21T01:52:06.837Z,6.76
2022-11-21T01:54:59.838Z,6.74
2022-11-21T01:57:48.450Z,6.72
2022-11-21T02:00:38.882Z,6.70
2022-11-21T02:03:27.023Z,6.64
2022-11-21T02:06:12.874Z,6.64
2022-11-21T02:08:59.912Z,6.60
2022-11-21T02:11:50.833Z,6.62
2022-11-21T02:14:38.400Z,6.62
2022-11-21T02:17:23.411Z,6.57
2022-11-21T02:20:12.000Z,6.56
2022-11-21T02:23:23.313Z,6.48
2022-11-21T02:26:08.814Z,6.43
2022-11-21T02:28:54.112Z,6.43
2022-11-21T02:31:39.270Z,6.40
2022-11-21T02:34:24.375Z,6.39
2022-11-21T02:37:10.027Z,6.38
2022-11-21T02:39:58.829Z,6.35
2022-11-21T02:42:55.183Z,6.33
2022-11-21T02:45:43.212Z,6.29
2022-11-21T02:48:28.132Z,6.28
2022-11-21T02:51:12.957Z,6.27
2022-11-21T02:53:57.937Z,6.25
2022-11-21T02:56:42.942Z,6.24
2022-11-21T02:59:28.047Z,6.20
2022-11-21T03:02:12.894Z,6.20
2022-11-21T03:04:58.158Z,6.18
2022-11-21T03:07:44.004Z,6.19
2022-11-21T03:10:28.923Z,6.18
2022-11-21T03:13:13.891Z,6.14
2022-11-21T03:15:59.558Z,6.09
2022-11-21T03:18:45.034Z,6.12
2022-11-21T03:21:29.797Z,6.14
2022-11-21T03:24:14.799Z,6.14
2022-11-21T03:26:59.956Z,6.19
2022-11-21T03:29:44.914Z,6.18
2022-11-21T03:32:30.014Z,6.21
2022-11-21T03:35:15.035Z,6.26
2022-11-21T03:37:59.770Z,6.25
2022-11-21T03:40:44.921Z,6.22
2022-11-21T03:43:30.067Z,6.25
2022-11-21T03:46:15.009Z,6.25
2022-11-21T03:49:00.333Z,6.22
2022-11-21T03:51:45.372Z,6.18
2022-11-21T03:54:30.706Z,6.14
2022-11-21T03:57:15.913Z,6.09
2022-11-21T04:00:00.970Z,6.05
2022-11-21T04:02:46.058Z,5.98
2022-11-21T04:05:31.131Z,5.91
2022-11-21T04:08:15.966Z,5.88
2022-11-21T04:11:01.107Z,5.82
2022-11-21T04:13:46.112Z,5.82
2022-11-21T04:16:31.243Z,5.79
2022-11-21T04:19:16.105Z,5.75
2022-11-21T04:22:01.281Z,5.75
2022-11-21T04:24:46.355Z,5.77
2022-11-21T04:27:31.420Z,5.83
2022-11-21T04:30:16.621Z,5.78
2022-11-21T04:33:01.438Z,5.78
2022-11-21T04:35:46.980Z,5.76
2022-11-21T04:38:32.058Z,5.75
2022-11-21T04:41:17.069Z,5.74
2022-11-21T04:44:02.395Z,5.78
2022-11-21T04:46:47.430Z,5.79
2022-11-21T04:49:32.643Z,5.84
2022-11-21T04:52:17.526Z,5.87
2022-11-21T04:55:03.629Z,5.88
2022-11-21T04:57:48.594Z,5.85
2022-11-21T05:00:34.898Z,5.86
2022-11-21T05:03:19.796Z,5.87
2022-11-21T05:06:04.894Z,5.88
2022-11-21T05:08:53.474Z,5.85
2022-11-21T05:11:57.634Z,5.78
2022-11-21T05:14:42.694Z,5.73
2022-11-21T05:17:29.130Z,5.72
2022-11-21T05:20:14.835Z,5.73
2022-11-21T05:22:59.557Z,5.71
2022-11-21T05:25:44.714Z,5.77
2022-11-21T05:28:29.773Z,5.84
2022-11-21T05:31:14.646Z,5.84
2022-11-21T05:33:59.702Z,5.85
2022-11-21T05:36:44.842Z,5.93
2022-11-21T05:39:29.994Z,5.94
2022-11-21T05:42:14.817Z,5.98
2022-11-21T05:44:59.888Z,6.02
2022-11-21T05:47:45.028Z,6.03
2022-11-21T05:50:30.209Z,6.07
2022-11-21T05:53:15.498Z,6.11
2022-11-21T05:56:06.110Z,6.06
2022-11-21T05:58:51.645Z,6.11
2022-11-21T06:01:55.290Z,6.09
2022-11-21T06:04:40.327Z,6.06
2022-11-21T06:07:25.329Z,6.04
2022-11-21T06:10:10.018Z,6.09
2022-11-21T06:12:59.932Z,6.16
2022-11-21T06:15:44.870Z,6.19
2022-11-21T06:18:32.670Z,6.15
2022-11-21T06:21:22.619Z,6.18
2022-11-21T06:24:08.120Z,6.19
2022-11-21T06:26:52.902Z,6.14
2022-11-21T06:29:38.271Z,6.10
2022-11-21T06:32:23.200Z,6.06
2022-11-21T06:35:08.434Z,6.00
2022-11-21T06:37:53.853Z,5.95
2022-11-21T06:40:39.466Z,5.90
2022-11-21T06:43:24.590Z,5.84
2022-11-21T06:46:09.999Z,5.79
2022-11-21T06:48:54.832Z,5.74
2022-11-21T06:51:39.863Z,5.72
2022-11-21T06:54:24.858Z,5.66
2022-11-21T06:57:09.833Z,5.65
2022-11-21T06:59:54.915Z,5.63
2022-11-21T07:02:39.988Z,5.60
2022-11-21T07:05:25.078Z,5.57
2022-11-21T07:08:13.300Z,5.57
2022-11-21T07:11:24.124Z,5.62
2022-11-21T07:14:09.381Z,5.66
2022-11-21T07:16:54.430Z,5.70
2022-11-21T07:19:40.982Z,5.74
2022-11-21T07:22:26.156Z,5.81
2022-11-21T07:25:10.976Z,5.86
2022-11-21T07:27:59.846Z,5.90
2022-11-21T07:30:45.106Z,5.97
2022-11-21T07:33:30.738Z,5.92
2022-11-21T07:36:16.112Z,5.94
2022-11-21T07:39:01.430Z,5.94
2022-11-21T07:41:46.221Z,5.95
2022-11-21T07:44:31.387Z,5.99
2022-11-21T07:47:16.167Z,6.02
2022-11-21T07:50:01.715Z,6.02
2022-11-21T07:52:46.495Z,6.06
2022-11-21T07:55:36.345Z,6.08
2022-11-21T07:58:24.140Z,6.08
2022-11-21T08:01:09.267Z,6.17
2022-11-21T08:03:54.103Z,6.26
2022-11-21T08:06:39.356Z,6.29
2022-11-21T08:09:28.195Z,6.21
2022-11-21T08:12:14.501Z,6.22
2022-11-21T08:14:59.697Z,6.13
2022-11-21T08:17:44.990Z,6.13
2022-11-21T08:20:29.930Z,6.18
2022-11-21T08:23:15.410Z,6.21
2022-11-21T08:26:00.373Z,6.17
2022-11-21T08:28:45.362Z,6.16
2022-11-21T08:31:30.341Z,6.22
2022-11-21T08:34:15.218Z,6.24
2022-11-21T08:37:00.219Z,6.25
2022-11-21T08:39:45.456Z,6.24
2022-11-21T08:42:30.459Z,6.29
2022-11-21T08:45:15.313Z,6.33
2022-11-21T08:48:00.801Z,6.38
2022-11-21T08:50:45.921Z,6.40
2022-11-21T08:53:31.051Z,6.58
2022-11-21T08:56:15.790Z,6.53
2022-11-21T08:59:00.933Z,6.56
2022-11-21T09:01:46.238Z,6.67
2022-11-21T09:04:31.276Z,6.76
2022-11-21T09:07:16.028Z,6.88
2022-11-21T09:10:00.961Z,7.13
2022-11-21T09:12:45.907Z,7.03
2022-11-21T09:15:49.874Z,7.14
2022-11-21T09:18:34.843Z,7.30
2022-11-21T09:21:21.186Z,7.46
2022-11-21T09:24:06.133Z,7.39
2022-11-21T09:26:50.931Z,7.61
2022-11-21T09:29:35.926Z,7.85
2022-11-21T09:32:20.855Z,7.81
2022-11-21T09:35:06.575Z,7.67
2022-11-21T09:37:51.898Z,7.83
2022-11-21T09:40:43.646Z,7.98
2022-11-21T09:43:43.445Z,8.14
2022-11-21T09:46:35.842Z,8.22
2022-11-21T09:49:22.167Z,8.21
2022-11-21T09:52:10.110Z,7.83
2022-11-21T09:55:01.407Z,7.57
2022-11-21T09:57:48.800Z,7.61
2022-11-21T10:00:33.800Z,7.89
2022-11-21T10:03:22.553Z,8.15
2022-11-21T10:06:18.062Z,8.44
2022-11-21T10:09:18.533Z,8.67
2022-11-21T10:12:32.937Z,8.51
2022-11-21T10:15:33.222Z,8.54
2022-11-21T10:18:42.770Z,8.97
2022-11-21T10:21:33.716Z,9.50
2022-11-21T10:24:40.694Z,9.27
2022-11-21T10:27:34.513Z,9.50
2022-11-21T10:30:21.313Z,10.04
2022-11-21T10:33:15.490Z,10.04
2022-11-21T10:36:16.166Z,9.82
2022-11-21T10:39:27.421Z,9.41
2022-11-21T10:42:34.877Z,9.71
2022-11-21T10:45:20.303Z,9.82
2022-11-21T10:48:08.181Z,9.49
2022-11-21T10:51:27.432Z,9.56
2022-11-21T10:54:32.721Z,9.37
2022-11-21T10:57:19.918Z,9.22
2022-11-21T11:00:13.973Z,9.09
2022-11-21T11:03:07.002Z,9.64
2022-11-21T11:05:59.190Z,10.02
2022-11-21T11:08:52.319Z,9.99
2022-11-21T11:11:37.424Z,9.29
2022-11-21T11:14:32.246Z,9.43
2022-11-21T11:17:26.820Z,9.71
2022-11-21T11:20:34.934Z,9.91
2022-11-21T11:23:19.758Z,9.31
2022-11-21T11:26:19.860Z,9.16
2022-11-21T11:29:14.274Z,9.28
2022-11-21T11:31:59.347Z,9.23
2022-11-21T11:35:00.556Z,9.27
2022-11-21T11:38:03.528Z,9.43
2022-11-21T11:40:48.327Z,9.30
2022-11-21T11:44:33.258Z,9.16
2022-11-21T11:47:30.764Z,9.09
2022-11-21T11:50:19.665Z,9.20
2022-11-21T11:53:26.307Z,9.32
2022-11-21T11:56:33.140Z,9.23
2022-11-21T11:59:33.789Z,9.03
2022-11-21T12:02:42.517Z,9.03
2022-11-21T12:05:30.683Z,9.01
2022-11-21T12:08:42.514Z,8.95
2022-11-21T12:11:58.132Z,8.96
2022-11-21T12:15:28.205Z,9.08
2022-11-21T12:18:22.156Z,8.86
2022-11-21T12:21:14.083Z,8.91
2022-11-21T12:24:03.195Z,8.78
2022-11-21T12:27:24.187Z,8.83
2022-11-21T12:30:19.677Z,8.86
2022-11-21T12:33:23.984Z,8.84
2022-11-21T12:36:25.853Z,8.81
2022-11-21T12:39:26.939Z,8.89
2022-11-21T12:42:41.626Z,9.05
2022-11-21T12:45:28.533Z,8.93
2022-11-21T12:48:37.191Z,8.98
2022-11-21T12:52:09.049Z,9.05
2022-11-21T12:55:12.170Z,8.99
2022-11-21T12:58:09.466Z,8.99
2022-11-21T13:01:15.421Z,8.84
2022-11-21T13:04:14.143Z,8.88
2022-11-21T13:07:01.312Z,8.83
2022-11-21T13:09:50.462Z,8.87
2022-11-21T13:13:02.546Z,8.78
2022-11-21T13:16:02.452Z,8.70
2022-11-21T13:18:50.041Z,8.59
2022-11-21T13:21:47.926Z,8.55
2022-11-21T13:24:45.057Z,8.59
2022-11-21T13:27:42.004Z,8.61
2022-11-21T13:30:26.859Z,8.52
2022-11-21T13:33:34.982Z,8.52
2022-11-21T13:36:28.655Z,8.57
2022-11-21T13:39:16.292Z,8.60
2022-11-21T13:42:21.075Z,8.42
2022-11-21T13:45:45.017Z,8.50
2022-11-21T13:49:05.673Z,8.46
2022-11-21T13:51:55.016Z,8.48
2022-11-21T13:55:13.242Z,8.50
2022-11-21T13:58:08.067Z,8.42
2022-11-21T14:01:31.409Z,8.34
2022-11-21T14:04:41.949Z,8.34
2022-11-21T14:07:30.757Z,8.28
2022-11-21T14:10:31.226Z,8.24
2022-11-21T14:13:27.760Z,8.19
2022-11-21T14:16:22.124Z,8.14
2022-11-21T14:19:14.789Z,8.13
2022-11-21T14:22:00.816Z,8.11
2022-11-21T14:24:47.198Z,8.06
2022-11-21T14:27:38.573Z,7.96
2022-11-21T14:30:34.969Z,7.91
2022-11-21T14:33:26.722Z,7.86
2022-11-21T14:36:23.602Z,7.69
2022-11-21T14:42:16.372Z,7.55
2022-11-21T14:45:16.484Z,7.51
2022-11-21T14:48:01.433Z,7.52
2022-11-21T14:50:46.554Z,7.49
2022-11-21T14:53:32.116Z,7.44
2022-11-21T14:56:23.255Z,7.40
2022-11-21T14:59:19.649Z,7.31
2022-11-21T15:02:32.537Z,7.29
2022-11-21T15:05:29.221Z,7.27
2022-11-21T15:09:14.761Z,7.28
2022-11-21T15:11:41.029Z,7.24
2022-11-21T15:14:50.239Z,7.23
2022-11-21T15:17:35.441Z,7.24
2022-11-21T15:20:21.403Z,7.15
2022-11-21T15:23:25.858Z,7.08
2022-11-21T15:26:31.489Z,7.07
2022-11-21T15:29:20.873Z,7.00
2022-11-21T15:32:15.613Z,6.95
2022-11-21T15:35:47.593Z,6.93
2022-11-21T15:38:56.838Z,6.87
2022-11-21T15:41:42.158Z,6.75
2022-11-21T15:44:27.416Z,6.79
2022-11-21T15:47:12.476Z,6.82
2022-11-21T15:49:57.710Z,6.82
2022-11-21T15:52:49.644Z,6.79
2022-11-21T15:55:34.767Z,6.78
2022-11-21T15:58:19.908Z,6.78
2022-11-21T16:01:05.060Z,6.76
2022-11-21T16:03:52.367Z,6.67
2022-11-21T16:06:37.234Z,6.63
2022-11-21T16:09:22.215Z,6.65
2022-11-21T16:12:08.931Z,6.65
2022-11-21T16:14:54.098Z,6.66
2022-11-21T16:17:40.431Z,6.62
2022-11-21T16:20:25.601Z,6.64
2022-11-21T16:23:11.843Z,6.61
2022-11-21T16:25:56.786Z,6.63
2022-11-21T16:28:42.159Z,6.57
2022-11-21T16:31:29.397Z,6.56
2022-11-21T16:34:18.561Z,6.56
2022-11-21T16:37:07.289Z,6.60
2022-11-21T16:39:52.698Z,6.55
2022-11-21T16:42:37.897Z,6.57
2022-11-21T16:45:22.845Z,6.54
2022-11-21T16:48:07.813Z,6.56
2022-11-21T16:50:53.229Z,6.59
2022-11-21T16:53:39.055Z,6.63
2022-11-21T16:56:24.277Z,6.59
2022-11-21T16:59:09.296Z,6.66
2022-11-21T17:01:54.190Z,6.67
2022-11-21T17:04:39.289Z,6.73
2022-11-21T17:07:24.181Z,6.73
2022-11-21T17:10:09.672Z,6.74
2022-11-21T17:12:54.478Z,6.74
2022-11-21T17:15:39.665Z,6.75
2022-11-21T17:18:24.398Z,6.73
2022-11-21T17:21:12.326Z,6.75
2022-11-21T17:23:57.706Z,6.74
2022-11-21T17:26:42.532Z,6.71
2022-11-21T17:29:28.654Z,6.67
2022-11-21T17:32:13.470Z,6.64
2022-11-21T17:34:58.527Z,6.57
2022-11-21T17:37:43.700Z,6.53
2022-11-21T17:40:28.874Z,6.50
2022-11-21T17:43:13.874Z,6.48
2022-11-21T17:46:11.896Z,6.44
2022-11-21T17:48:58.820Z,6.38
2022-11-21T17:51:44.090Z,6.39
2022-11-21T17:54:29.423Z,6.36
2022-11-21T17:57:14.524Z,6.36
2022-11-21T17:59:59.602Z,6.36
2022-11-21T18:02:44.889Z,6.35
2022-11-21T18:05:29.776Z,6.40
2022-11-21T18:08:14.710Z,6.37
2022-11-21T18:11:00.422Z,6.37
2022-11-21T18:13:45.577Z,6.40
2022-11-21T18:16:31.986Z,6.44
2022-11-21T18:19:17.128Z,6.49
2022-11-21T18:22:02.391Z,6.52
2022-11-21T18:24:47.201Z,6.55
2022-11-21T18:27:32.281Z,6.63
2022-11-21T18:30:17.142Z,6.70
2022-11-21T18:33:03.061Z,6.82
2022-11-21T18:35:48.407Z,6.82
2022-11-21T18:38:56.487Z,6.79
2022-11-21T18:41:40.528Z,6.76
2022-11-21T18:44:25.619Z,6.77
2022-11-21T18:47:20.026Z,6.73
2022-11-21T18:50:06.591Z,6.74
2022-11-21T18:52:51.514Z,6.74
2022-11-21T18:55:38.194Z,6.71
2022-11-21T18:58:23.176Z,6.70
2022-11-21T19:01:14.891Z,6.65
2022-11-21T19:04:00.037Z,6.65
2022-11-21T19:06:45.101Z,6.65
2022-11-21T19:09:32.773Z,6.68
2022-11-21T19:12:18.585Z,6.68
2022-11-21T19:15:03.478Z,6.69
2022-11-21T19:17:48.365Z,6.73
2022-11-21T19:20:34.879Z,6.75
2022-11-21T19:23:20.232Z,6.72
2022-11-21T19:26:07.601Z,6.75
2022-11-21T19:28:52.711Z,6.75
2022-11-21T19:31:44.531Z,6.74
2022-11-21T19:34:30.441Z,6.73
2022-11-21T19:37:15.528Z,6.76
2022-11-21T19:40:00.704Z,6.77
2022-11-21T19:42:45.799Z,6.77
2022-11-21T19:45:30.971Z,6.77
2022-11-21T19:48:16.767Z,6.76
2022-11-21T19:51:03.134Z,6.75
2022-11-21T19:53:49.118Z,6.76
2022-11-21T19:56:34.495Z,6.76
2022-11-21T19:59:19.285Z,6.78
2022-11-21T20:02:04.571Z,6.80
2022-11-21T20:04:49.641Z,6.83
2022-11-21T20:07:34.957Z,6.84
2022-11-21T20:10:19.685Z,6.90
2022-11-21T20:13:04.695Z,6.87
2022-11-21T20:15:49.809Z,6.87
2022-11-21T20:18:35.864Z,6.85
2022-11-21T20:21:21.136Z,6.85
2022-11-21T20:24:06.918Z,6.88
2022-11-21T20:26:53.010Z,6.91
2022-11-21T20:29:38.078Z,6.95
2022-11-21T20:32:23.061Z,6.96
2022-11-21T20:35:08.281Z,6.95
2022-11-21T20:37:53.372Z,6.95
2022-11-21T20:40:38.536Z,6.98
2022-11-21T20:43:33.203Z,7.01
2022-11-21T20:46:29.245Z,7.01
2022-11-21T20:49:14.500Z,7.04
2022-11-21T20:55:05.327Z,7.03
2022-11-21T20:57:50.380Z,7.05
2022-11-21T21:00:35.812Z,7.07
2022-11-21T21:03:20.731Z,7.04
2022-11-21T21:06:08.703Z,7.02
2022-11-21T21:08:53.974Z,7.02
2022-11-21T21:11:54.408Z,6.98
2022-11-21T21:14:39.286Z,6.93
2022-11-21T21:17:24.367Z,6.92
2022-11-21T21:20:10.638Z,6.85
2022-11-21T21:22:56.215Z,6.82
2022-11-21T21:25:42.633Z,6.77
2022-11-21T21:28:28.055Z,6.73
2022-11-21T21:31:15.657Z,6.71
2022-11-21T21:34:01.209Z,6.72
2022-11-21T21:36:46.285Z,6.76
2022-11-21T21:39:31.169Z,6.75
2022-11-21T21:42:16.058Z,6.77
2022-11-21T21:45:02.436Z,6.76
2022-11-21T21:47:47.300Z,6.78
2022-11-21T21:50:32.489Z,6.75
2022-11-21T21:53:17.390Z,6.75
2022-11-21T21:56:03.316Z,6.77
2022-11-21T21:58:49.300Z,6.79
2022-11-21T22:01:34.683Z,6.78
2022-11-21T22:04:19.795Z,6.83
2022-11-21T22:07:05.591Z,6.86
2022-11-21T22:09:50.523Z,6.80
2022-11-21T22:12:37.825Z,6.83
2022-11-21T22:15:26.111Z,6.82
2022-11-21T22:18:11.297Z,6.84
2022-11-21T22:20:56.959Z,6.83
2022-11-21T22:24:02.401Z,6.77
2022-11-21T22:26:47.882Z,6.82
2022-11-21T22:29:33.040Z,6.76
2022-11-21T22:32:19.837Z,6.79
2022-11-21T22:35:05.368Z,6.78
2022-11-21T22:37:50.732Z,6.74
2022-11-21T22:40:35.922Z,6.75
2022-11-21T22:43:20.776Z,6.71
2022-11-21T22:46:06.785Z,6.71
2022-11-21T22:48:51.569Z,6.73
2022-11-21T22:51:36.735Z,6.71
2022-11-21T22:54:21.805Z,6.68
2022-11-21T22:57:06.825Z,6.66
2022-11-21T22:59:52.271Z,6.65
2022-11-21T23:02:37.046Z,6.68
2022-11-21T23:05:21.823Z,6.65
2022-11-21T23:08:06.922Z,6.57
2022-11-21T23:10:52.071Z,6.51
2022-11-21T23:13:39.313Z,6.49
2022-11-21T23:16:25.660Z,6.46
2022-11-21T23:19:10.563Z,6.48
2022-11-21T23:21:55.767Z,6.46
2022-11-21T23:24:40.569Z,6.43
2022-11-21T23:27:25.507Z,6.43
2022-11-21T23:30:11.011Z,6.39
2022-11-21T23:32:55.804Z,6.37
2022-11-21T23:35:42.870Z,6.38
2022-11-21T23:38:27.770Z,6.40
2022-11-21T23:41:12.674Z,6.41
2022-11-21T23:43:59.730Z,6.39
2022-11-21T23:46:44.741Z,6.39
2022-11-21T23:49:30.185Z,6.36
2022-11-21T23:52:15.141Z,6.39
2022-11-21T23:55:00.100Z,6.41
2022-11-21T23:57:48.775Z,6.41
